Terminal Aerodrome Forecast
Issued by NWS

Home | Current Version | Previous Version | Text Only | Print | Product List | Glossary On
Versions: 1 2 3 4 5 6 7 8 9 10 11 12 13 14 15 16 17 18 19 20 21 22 23 24 25 26
000
FTUS44 KHGX 182323
TAFSGR
TAF
KSGR 182323Z 1900/1924 15013KT P6SM SCT025
     FM190200 15011KT P6SM SCT015 BKN025
     FM190400 15011KT P6SM SCT008 BKN015
     FM190800 16011KT P6SM SCT015 BKN025
     FM191600 16013G23KT P6SM SCT025 BKN035
     FM191800 17013G23KT P6SM SCT035 SCT060 BKN250=

USA.gov is the U.S. government's official web portal to all federal, state and local government web resources and services.